Pagina principale
METAR-TAF:

METAR-TAF

Aeroporti :

Aeroporto di Parigi Orly

Parigi-Orly, Francia

latitudine: 48-44N, longitudine: 002-24E, altezza: 89 m

Osservazione

Il bollettino è stato emesso 23 minuti fa, alle 12:00 UTC
Vento 12 kt da nord-est
Temperature 30°C
Umidità 62%
Pressione 1023 hPa
Visibilità 10 km o più
nessuna nube inferiore a 1500 m e nessun cumulonembo

METAR: LFPO 271200Z 04012KT CAVOK 30/22 Q1023 NOSIG

Ora: 14:23 (12:23 UTC)

Previsione

Il bollettino è stato emesso 1 ora e 23 minuti fa, alle 11:00 UTC
Previsione valida dal 27 alle 12 UTC al 28 alle 18 UTC
Vento 10 kt da nord-est
Visibilità 10 km o più
nessuna nube inferiore a 1500 m e nessun cumulonembo

TAF: LFPO 271100Z 2712/2818 04010KT CAVOK

Osservazioni e previsioni meteorologiche di più di 4000 aeroporti (messaggi METAR e TAF).

Le stazioni disponibili sono rappresentate dai dischi gialli e rossi sulla carta.

Puntare il mouse per vedere il nome della stazione.

Clicca sopra per visualizzare le osservazioni e previsioni meteorologiche.

Per cambiare la mappa : fare clic sui pulsanti verdi con una croce nera per ingrandire, il pulsante verde con un trattino per diminuire, o sulla freccia verde per le mappe adiacenti.


METAR-TAF: